Time;durP1;ratioP1;P1;durP2;ratioP2;P2;SDS_P1;SDS_P2;PMS_P1;PMS_P2;Temp;Humidity;BMP_temperature;BMP_pressure;BME280_temperature;BME280_humidity;BME280_pressure;Samples;Min_cycle;Max_cycle;Signal;HPM_P1;HPM_P2
2021/01/06 00:00:56;;;;;;;8.55;6.13;;;11.20;63.90;;;;;;5102618;28;20012;-67
2021/01/06 00:03:23;;;;;;;12.70;7.07;;;11.20;64.00;;;;;;5102526;28;20020;-66
2021/01/06 00:06:04;;;;;;;11.23;6.85;;;11.20;63.90;;;;;;5102499;28;20031;-67
2021/01/06 00:08:30;;;;;;;10.30;6.55;;;11.20;64.40;;;;;;5102488;28;20047;-67
2021/01/06 00:10:57;;;;;;;8.32;6.03;;;11.20;63.90;;;;;;5102398;28;20015;-67
2021/01/06 00:13:24;;;;;;;11.45;6.55;;;11.20;63.90;;;;;;5102157;28;20046;-67
2021/01/06 00:15:51;;;;;;;10.40;6.18;;;11.20;64.20;;;;;;5102350;28;20032;-66
2021/01/06 00:18:17;;;;;;;9.48;6.55;;;11.20;63.90;;;;;;5102346;28;20035;-67
2021/01/06 00:20:43;;;;;;;11.57;6.72;;;11.20;63.90;;;;;;5102376;28;20027;-65
2021/01/06 00:23:09;;;;;;;9.38;6.20;;;11.20;63.90;;;;;;5102284;28;20031;-66
2021/01/06 00:25:37;;;;;;;10.77;6.20;;;11.20;63.90;;;;;;5102233;28;20032;-65
2021/01/06 00:28:04;;;;;;;10.25;6.43;;;11.10;63.90;;;;;;5118320;28;20069;-65
2021/01/06 00:30:36;;;;;;;11.23;7.20;;;11.10;64.10;;;;;;5102200;28;20083;-67
2021/01/06 00:33:08;;;;;;;9.70;6.07;;;11.10;64.10;;;;;;5102141;28;20020;-66
2021/01/06 00:35:34;;;;;;;9.30;6.63;;;11.20;63.90;;;;;;5102192;28;20023;-68
2021/01/06 00:38:00;;;;;;;12.65;7.75;;;11.20;63.70;;;;;;5102100;28;20023;-67
2021/01/06 00:40:29;;;;;;;11.27;7.22;;;11.20;63.40;;;;;;5102313;28;20330;-64
2021/01/06 00:43:00;;;;;;;10.38;6.85;;;11.20;63.40;;;;;;5102160;28;20028;-65
2021/01/06 00:45:27;;;;;;;10.98;6.75;;;11.20;63.70;;;;;;5105318;28;20073;-66
2021/01/06 00:47:53;;;;;;;12.65;6.88;;;11.20;63.70;;;;;;5106262;28;20031;-65
2021/01/06 00:50:24;;;;;;;11.85;6.85;;;11.10;63.80;;;;;;5106198;28;20024;-65
2021/01/06 00:52:50;;;;;;;12.13;7.28;;;11.20;63.80;;;;;;5106097;28;20020;-66
2021/01/06 00:55:16;;;;;;;10.65;7.50;;;11.10;63.80;;;;;;5106133;28;20089;-65
2021/01/06 00:57:42;;;;;;;9.45;6.80;;;11.20;63.90;;;;;;5106094;28;20185;-66
2021/01/06 01:00:13;;;;;;;10.90;7.53;;;11.20;63.90;;;;;;5106026;28;20069;-67
2021/01/06 01:02:39;;;;;;;10.70;6.32;;;11.10;63.80;;;;;;5105957;28;20047;-67
2021/01/06 01:05:06;;;;;;;11.95;7.70;;;11.10;64.00;;;;;;5105937;28;20031;-66
2021/01/06 01:07:32;;;;;;;12.23;7.28;;;11.10;64.00;;;;;;5105858;28;20023;-66
2021/01/06 01:09:58;;;;;;;10.77;6.93;;;11.10;63.80;;;;;;5105775;28;20338;-65
2021/01/06 01:12:23;;;;;;;9.05;6.78;;;11.10;63.90;;;;;;5105569;28;20032;-68
2021/01/06 01:14:50;;;;;;;9.68;6.68;;;11.10;63.80;;;;;;5105828;28;20219;-67
2021/01/06 01:17:17;;;;;;;13.27;8.05;;;11.10;63.70;;;;;;5105706;28;20279;-68
2021/01/06 01:19:43;;;;;;;15.63;8.25;;;11.10;63.80;;;;;;5105660;28;20024;-66
2021/01/06 01:22:08;;;;;;;12.77;7.68;;;11.10;63.80;;;;;;5105609;28;20091;-68
2021/01/06 01:24:34;;;;;;;10.98;7.15;;;11.20;63.80;;;;;;5105588;28;20028;-65
2021/01/06 01:27:00;;;;;;;9.75;6.72;;;11.20;63.90;;;;;;5105523;28;20316;-68
2021/01/06 01:29:25;;;;;;;12.65;7.75;;;11.10;63.80;;;;;;5121300;28;20012;-68
2021/01/06 01:31:51;;;;;;;11.45;7.20;;;11.10;63.90;;;;;;5105346;28;20023;-66
2021/01/06 01:34:17;;;;;;;12.27;7.68;;;11.10;64.10;;;;;;5105336;28;20038;-66
2021/01/06 01:36:49;;;;;;;9.95;6.53;;;11.10;64.20;;;;;;5105360;28;20024;-65
2021/01/06 01:39:16;;;;;;;11.57;7.05;;;11.10;64.10;;;;;;5105286;28;20035;-67
2021/01/06 01:41:42;;;;;;;10.50;6.80;;;11.10;64.10;;;;;;5105196;28;20051;-67
2021/01/06 01:44:11;;;;;;;11.52;6.72;;;11.10;63.90;;;;;;5105228;28;20024;-67
2021/01/06 01:47:06;;;;;;;10.73;7.18;;;11.10;63.80;;;;;;5105156;28;20061;-66
2021/01/06 01:49:47;;;;;;;11.32;6.90;;;11.10;63.70;;;;;;5105639;28;20057;-67
2021/01/06 01:52:33;;;;;;;11.60;6.95;;;11.10;63.80;;;;;;5105074;28;20051;-65
2021/01/06 01:55:01;;;;;;;10.73;6.93;;;11.10;63.90;;;;;;5104553;28;20243;-65
2021/01/06 01:57:32;;;;;;;10.85;7.35;;;11.10;64.00;;;;;;5104117;28;20012;-67
2021/01/06 02:00:04;;;;;;;10.65;6.95;;;11.10;63.90;;;;;;5104886;28;20259;-67
2021/01/06 02:02:40;;;;;;;11.32;7.43;;;11.10;63.90;;;;;;5104896;28;20027;-66
2021/01/06 02:05:10;;;;;;;11.73;7.32;;;11.10;64.20;;;;;;5104814;28;20031;-66
2021/01/06 02:07:42;;;;;;;10.60;6.95;;;11.10;64.00;;;;;;5104779;28;20023;-67
2021/01/06 02:10:32;;;;;;;10.35;7.05;;;11.10;63.90;;;;;;5104722;28;20077;-67
2021/01/06 02:13:01;;;;;;;10.85;7.03;;;11.10;64.10;;;;;;5104355;28;20300;-66
2021/01/06 02:15:35;;;;;;;12.02;7.18;;;11.10;64.30;;;;;;5104617;28;20028;-66
2021/01/06 02:18:02;;;;;;;11.88;6.53;;;11.10;64.00;;;;;;5104539;28;20047;-67
2021/01/06 02:20:28;;;;;;;13.63;7.88;;;11.10;64.00;;;;;;5104481;28;20020;-66
2021/01/06 02:22:55;;;;;;;10.80;7.45;;;11.10;63.90;;;;;;5104507;28;20023;-65
2021/01/06 02:25:23;;;;;;;9.65;7.00;;;11.10;63.90;;;;;;5104405;28;20429;-67
2021/01/06 02:27:49;;;;;;;12.13;7.07;;;11.10;63.80;;;;;;5104385;28;20028;-66
2021/01/06 02:30:16;;;;;;;11.38;6.68;;;11.10;63.80;;;;;;5104324;28;20059;-65
2021/01/06 02:32:43;;;;;;;9.25;7.00;;;11.10;63.90;;;;;;5104230;28;20126;-67
2021/01/06 02:35:10;;;;;;;11.00;7.05;;;11.10;63.80;;;;;;5104179;28;20026;-67
2021/01/06 02:37:37;;;;;;;8.48;6.78;;;11.00;63.90;;;;;;5104196;28;20247;-66
2021/01/06 02:40:06;;;;;;;10.45;6.53;;;11.10;63.90;;;;;;5102924;28;20051;-64
2021/01/06 02:42:35;;;;;;;12.13;7.57;;;11.10;63.90;;;;;;5104072;28;20024;-66
2021/01/06 02:45:11;;;;;;;10.10;6.35;;;11.10;64.00;;;;;;5103985;28;20032;-66
2021/01/06 02:47:38;;;;;;;11.30;7.10;;;11.10;63.90;;;;;;5104260;28;20107;-66
2021/01/06 02:50:08;;;;;;;11.10;7.40;;;11.10;63.90;;;;;;5103913;28;20032;-67
2021/01/06 02:52:46;;;;;;;11.27;6.90;;;11.00;63.80;;;;;;5103744;28;20324;-65
2021/01/06 02:55:14;;;;;;;10.55;6.50;;;11.10;63.90;;;;;;5103793;28;20323;-67
2021/01/06 02:57:41;;;;;;;11.87;7.30;;;11.10;63.70;;;;;;5103801;28;20031;-68
2021/01/06 03:00:07;;;;;;;11.38;7.32;;;11.10;63.60;;;;;;5103715;28;20083;-67
2021/01/06 03:02:34;;;;;;;10.23;6.47;;;11.10;63.60;;;;;;5103684;28;20032;-66
2021/01/06 03:05:11;;;;;;;10.40;6.32;;;11.10;63.90;;;;;;5103630;28;20056;-65
2021/01/06 03:07:38;;;;;;;8.85;6.35;;;11.10;63.90;;;;;;5103582;28;20016;-65
2021/01/06 03:10:05;;;;;;;11.48;6.88;;;11.00;63.60;;;;;;5103538;28;20028;-66
2021/01/06 03:12:34;;;;;;;11.43;6.95;;;11.10;63.70;;;;;;5103257;28;20026;-65
2021/01/06 03:15:01;;;;;;;13.20;7.32;;;11.10;63.90;;;;;;5103478;28;20032;-65
2021/01/06 03:17:30;;;;;;;11.43;6.57;;;11.00;63.80;;;;;;5103376;28;20024;-67
2021/01/06 03:20:16;;;;;;;;;;;11.00;63.80;;;;;;5103801;28;20297;-65
2021/01/06 03:22:47;;;;;;;10.15;6.65;;;11.00;64.10;;;;;;5102979;28;19900;-68
2021/01/06 03:25:16;;;;;;;11.90;6.93;;;11.00;63.80;;;;;;5103288;28;20057;-67
2021/01/06 03:27:45;;;;;;;10.52;6.55;;;11.00;63.70;;;;;;5103203;28;20028;-68
2021/01/06 03:30:16;;;;;;;12.88;7.05;;;11.00;63.80;;;;;;5103179;28;20051;-67
2021/01/06 03:32:54;;;;;;;10.13;6.68;;;11.10;63.20;;;;;;5103077;28;20012;-67
2021/01/06 03:35:35;;;;;;;9.10;6.37;;;11.00;63.70;;;;;;5103128;28;20095;-67
2021/01/06 03:38:10;;;;;;;10.30;6.80;;;11.10;63.60;;;;;;5103098;28;20079;-67
2021/01/06 03:40:38;;;;;;;9.93;6.57;;;11.10;63.60;;;;;;5102956;28;20320;-63
2021/01/06 03:43:07;;;;;;;7.50;5.47;;;11.10;63.80;;;;;;5102973;28;20024;-65
2021/01/06 03:45:35;;;;;;;;;;;11.00;63.80;;;;;;5103384;28;20032;-66
2021/01/06 03:48:24;;;;;;;11.77;7.43;;;11.00;63.80;;;;;;5102831;28;19900;-66
2021/01/06 03:50:53;;;;;;;9.80;6.75;;;11.00;63.70;;;;;;5102786;28;20134;-67
2021/01/06 03:53:41;;;;;;;11.30;6.93;;;11.00;63.80;;;;;;5102670;28;20089;-67
2021/01/06 03:56:28;;;;;;;10.65;7.43;;;11.00;63.80;;;;;;5102712;28;20065;-65
2021/01/06 03:59:01;;;;;;;9.75;6.93;;;11.00;63.90;;;;;;5102608;28;20073;-67
2021/01/06 04:01:42;;;;;;;10.07;6.30;;;11.00;63.80;;;;;;5118465;28;20095;-66
2021/01/06 04:04:38;;;;;;;9.90;6.65;;;11.00;63.80;;;;;;5102611;28;20065;-67
2021/01/06 04:07:08;;;;;;;11.70;6.85;;;11.00;63.80;;;;;;5102565;28;20012;-68
2021/01/06 04:09:38;;;;;;;10.20;6.22;;;11.00;63.80;;;;;;5118317;28;20019;-66
2021/01/06 04:12:22;;;;;;;9.13;6.43;;;11.00;63.80;;;;;;5102412;28;20031;-66
2021/01/06 04:14:49;;;;;;;9.52;5.88;;;11.00;63.50;;;;;;5102429;28;20027;-66
2021/01/06 04:17:23;;;;;;;8.48;6.10;;;11.00;63.70;;;;;;5102393;28;20020;-66
2021/01/06 04:19:53;;;;;;;10.00;6.20;;;11.00;63.70;;;;;;5101640;28;20081;-66
2021/01/06 04:22:40;;;;;;;9.88;6.57;;;11.00;63.80;;;;;;5102308;28;20023;-66
2021/01/06 04:25:43;;;;;;;11.05;6.97;;;11.00;63.90;;;;;;5118083;28;20224;-66
2021/01/06 04:28:11;;;;;;;8.80;6.07;;;11.00;63.60;;;;;;5079877;28;20017;-67
2021/01/06 04:30:50;;;;;;;9.40;6.05;;;11.00;63.50;;;;;;5098079;28;20035;-64
2021/01/06 04:33:50;;;;;;;9.70;6.25;;;11.00;63.80;;;;;;5102115;28;20024;-67
2021/01/06 04:36:29;;;;;;;8.90;5.88;;;11.00;63.70;;;;;;5089890;28;20224;-64
2021/01/06 04:38:57;;;;;;;10.77;6.32;;;11.00;63.70;;;;;;5102197;28;20074;-65
2021/01/06 04:41:42;;;;;;;8.93;6.07;;;11.00;63.60;;;;;;5102117;28;20028;-66
2021/01/06 04:44:28;;;;;;;12.13;6.95;;;11.00;63.70;;;;;;5102103;28;20279;-66
2021/01/06 04:47:31;;;;;;;11.15;6.85;;;11.00;63.80;;;;;;5102099;28;20488;-67
2021/01/06 04:50:24;;;;;;;8.65;6.05;;;11.00;63.80;;;;;;5102023;28;20023;-66
2021/01/06 04:53:11;;;;;;;10.05;6.35;;;10.90;63.80;;;;;;5101961;28;20220;-65
2021/01/06 04:55:43;;;;;;;8.93;5.70;;;11.00;63.80;;;;;;5102011;28;20026;-68
2021/01/06 04:58:47;;;;;;;9.10;6.15;;;11.00;63.50;;;;;;5102040;28;20472;-66
2021/01/06 05:01:50;;;;;;;8.32;5.18;;;11.00;63.80;;;;;;5101958;28;20016;-67
2021/01/06 05:04:49;;;;;;;9.30;6.25;;;10.90;64.00;;;;;;5117639;28;20309;-67
2021/01/06 05:07:41;;;;;;;10.30;6.38;;;10.90;64.00;;;;;;5101890;28;20053;-65
2021/01/06 05:10:28;;;;;;;8.40;5.60;;;11.00;63.80;;;;;;5091364;28;20032;-67
2021/01/06 05:13:05;;;;;;;8.02;5.88;;;11.00;63.80;;;;;;5117269;28;20210;-65
2021/01/06 05:15:50;;;;;;;8.77;5.55;;;11.00;63.80;;;;;;5101821;28;20185;-67
2021/01/06 05:18:16;;;;;;;10.65;6.18;;;11.00;63.80;;;;;;5097634;28;20142;-66
2021/01/06 05:20:42;;;;;;;9.00;5.45;;;11.00;63.60;;;;;;5101789;28;20030;-69
2021/01/06 05:23:23;;;;;;;9.43;5.93;;;10.90;63.70;;;;;;5117526;28;20327;-68
2021/01/06 05:25:50;;;;;;;8.70;5.72;;;10.90;64.10;;;;;;5101739;28;20354;-68
2021/01/06 05:28:18;;;;;;;9.23;5.68;;;10.90;63.70;;;;;;5101683;28;20016;-67
2021/01/06 05:30:47;;;;;;;9.50;6.82;;;10.90;63.70;;;;;;5103485;28;20023;-65
2021/01/06 05:33:19;;;;;;;9.68;6.00;;;10.90;63.90;;;;;;5105408;28;20024;-67
2021/01/06 05:35:47;;;;;;;9.20;5.82;;;10.90;64.00;;;;;;5105462;28;20024;-66
2021/01/06 05:38:13;;;;;;;10.32;6.05;;;10.90;63.70;;;;;;5105373;28;20024;-65
2021/01/06 05:40:42;;;;;;;8.23;5.70;;;10.90;63.60;;;;;;5105332;28;20020;-67
2021/01/06 05:43:22;;;;;;;10.48;6.05;;;10.90;63.70;;;;;;5105194;28;20047;-67
2021/01/06 05:45:52;;;;;;;9.48;6.18;;;10.90;63.90;;;;;;5105258;28;20034;-64
2021/01/06 05:48:22;;;;;;;8.88;6.35;;;10.90;63.80;;;;;;5105233;28;20031;-67
2021/01/06 05:51:11;;;;;;;7.50;5.68;;;10.90;63.80;;;;;;5105142;28;20051;-67
2021/01/06 05:53:36;;;;;;;;;;;10.90;63.70;;;;;;5105509;28;20016;-67
2021/01/06 05:56:05;;;;;;;10.07;6.18;;;10.90;63.70;;;;;;5105066;28;19974;-67
2021/01/06 05:58:33;;;;;;;;;;;10.90;63.70;;;;;;5105447;28;20023;-67
2021/01/06 06:00:59;;;;;;;10.00;6.15;;;10.90;63.60;;;;;;5104926;28;19971;-67
2021/01/06 06:03:37;;;;;;;8.35;5.78;;;10.90;63.70;;;;;;5104916;28;20038;-66
2021/01/06 06:06:42;;;;;;;8.00;5.88;;;10.90;63.80;;;;;;5104894;28;20028;-66
2021/01/06 06:09:17;;;;;;;8.25;6.05;;;10.90;63.90;;;;;;5103427;28;20028;-68
2021/01/06 06:12:01;;;;;;;10.02;5.72;;;10.90;63.90;;;;;;5104735;28;20077;-66
2021/01/06 06:14:27;;;;;;;8.88;5.75;;;10.90;64.10;;;;;;5104510;28;20328;-67
2021/01/06 06:16:53;;;;;;;8.77;5.45;;;10.90;63.80;;;;;;5104658;28;20114;-64
2021/01/06 06:19:28;;;;;;;9.02;5.10;;;10.90;64.00;;;;;;5104540;28;20022;-66
2021/01/06 06:22:16;;;;;;;9.10;5.32;;;10.90;63.70;;;;;;5104560;28;20035;-67
2021/01/06 06:25:09;;;;;;;8.48;5.45;;;10.90;63.70;;;;;;5104533;28;20058;-67
2021/01/06 06:28:05;;;;;;;8.23;5.43;;;10.90;63.70;;;;;;5120539;28;20054;-64
2021/01/06 06:30:34;;;;;;;7.45;5.35;;;10.90;63.60;;;;;;5104381;28;20327;-66
2021/01/06 06:33:01;;;;;;;6.88;5.00;;;10.90;63.80;;;;;;5104226;28;20103;-66
2021/01/06 06:35:35;;;;;;;9.18;5.97;;;10.90;63.70;;;;;;5104257;28;20071;-66
2021/01/06 06:38:03;;;;;;;7.97;4.85;;;10.90;63.80;;;;;;5104257;28;20011;-65
2021/01/06 06:40:47;;;;;;;7.75;5.15;;;10.90;64.00;;;;;;5104221;28;20012;-68
2021/01/06 06:43:48;;;;;;;7.93;5.07;;;10.90;64.10;;;;;;5103375;28;20065;-67
2021/01/06 06:46:26;;;;;;;8.85;5.50;;;10.80;64.00;;;;;;5104084;28;20027;-65
2021/01/06 06:49:04;;;;;;;8.38;5.18;;;10.90;63.80;;;;;;5104044;28;20028;-68
2021/01/06 06:51:35;;;;;;;8.15;5.60;;;10.90;64.00;;;;;;5103979;28;20024;-66
2021/01/06 06:54:14;;;;;;;8.55;5.45;;;10.90;63.80;;;;;;5103783;28;20035;-65
2021/01/06 06:57:03;;;;;;;6.93;4.75;;;10.90;63.70;;;;;;5103949;28;20066;-67
2021/01/06 06:59:41;;;;;;;;;;;10.90;63.70;;;;;;5104295;28;20012;-67
2021/01/06 07:02:07;;;;;;;10.27;5.57;;;10.80;63.70;;;;;;5103829;28;19942;-65
2021/01/06 07:04:51;;;;;;;8.05;5.38;;;10.90;63.70;;;;;;5103728;28;20024;-65
2021/01/06 07:07:35;;;;;;;9.48;5.38;;;10.90;63.70;;;;;;5103729;28;20073;-66
2021/01/06 07:10:04;;;;;;;7.32;5.10;;;10.90;63.60;;;;;;5103626;28;20026;-65
2021/01/06 07:12:38;;;;;;;7.28;5.13;;;10.90;63.70;;;;;;5103350;28;20024;-68
2021/01/06 07:15:04;;;;;;;8.52;5.43;;;10.90;63.90;;;;;;5103543;28;20016;-66
2021/01/06 07:17:38;;;;;;;9.25;5.88;;;10.90;64.10;;;;;;5103455;28;20224;-67
2021/01/06 07:20:11;;;;;;;8.10;5.25;;;10.80;64.20;;;;;;5103435;28;20039;-65
2021/01/06 07:22:56;;;;;;;7.22;5.85;;;10.80;64.20;;;;;;5103402;28;20041;-66
2021/01/06 07:25:34;;;;;;;9.02;5.60;;;10.80;64.10;;;;;;5103366;28;20031;-68
2021/01/06 07:28:02;;;;;;;7.30;5.03;;;10.80;63.70;;;;;;5103309;28;20100;-65
2021/01/06 07:30:39;;;;;;;9.43;5.20;;;10.90;63.80;;;;;;5103202;28;20043;-67
2021/01/06 07:33:39;;;;;;;8.43;5.45;;;10.80;63.70;;;;;;5103133;28;20024;-65
2021/01/06 07:36:18;;;;;;;9.10;5.28;;;10.90;63.90;;;;;;5103138;28;20062;-66
2021/01/06 07:38:46;;;;;;;7.38;5.25;;;10.90;63.70;;;;;;5103116;28;20069;-64
2021/01/06 07:41:12;;;;;;;8.80;6.10;;;10.80;63.60;;;;;;5103037;28;20196;-67
2021/01/06 07:43:44;;;;;;;7.45;5.63;;;10.90;63.60;;;;;;5103046;28;20312;-66
2021/01/06 07:46:14;;;;;;;7.10;5.57;;;10.90;63.70;;;;;;5102984;28;20065;-65
2021/01/06 07:48:54;;;;;;;7.93;5.25;;;10.90;63.70;;;;;;5102917;28;20028;-65
2021/01/06 07:51:53;;;;;;;6.97;4.82;;;10.80;63.70;;;;;;5102953;28;20054;-68
2021/01/06 07:54:50;;;;;;;8.70;5.82;;;10.80;63.90;;;;;;5118941;28;20334;-67
2021/01/06 07:57:44;;;;;;;7.88;5.90;;;10.80;63.90;;;;;;5102806;28;20027;-68
2021/01/06 08:00:17;;;;;;;7.00;4.97;;;10.90;63.80;;;;;;5102735;28;20020;-67
2021/01/06 08:02:58;;;;;;;7.15;5.18;;;10.90;63.70;;;;;;5102692;28;20016;-67
2021/01/06 08:05:24;;;;;;;7.75;4.75;;;10.90;64.00;;;;;;5102702;28;20335;-67
2021/01/06 08:08:01;;;;;;;8.18;5.22;;;10.90;63.70;;;;;;5118318;28;20032;-67
2021/01/06 08:10:28;;;;;;;7.90;5.10;;;10.90;63.70;;;;;;5102570;28;20250;-66
2021/01/06 08:13:11;;;;;;;7.65;5.25;;;10.90;63.70;;;;;;5102311;28;20074;-63
2021/01/06 08:15:37;;;;;;;7.05;4.97;;;10.90;63.70;;;;;;5102496;28;20016;-64
2021/01/06 08:18:21;;;;;;;7.65;5.20;;;10.80;63.80;;;;;;5102455;28;20089;-66
2021/01/06 08:21:22;;;;;;;7.18;4.80;;;10.80;63.90;;;;;;5102412;28;20012;-65
2021/01/06 08:23:54;;;;;;;9.70;5.78;;;10.80;63.70;;;;;;5101094;28;20077;-68
2021/01/06 08:26:26;;;;;;;7.38;4.90;;;10.80;63.70;;;;;;5102376;28;20023;-66
2021/01/06 08:29:26;;;;;;;7.60;5.57;;;10.80;63.80;;;;;;5102329;28;20061;-67
2021/01/06 08:32:12;;;;;;;9.02;5.30;;;10.80;63.90;;;;;;5102293;28;20024;-68
2021/01/06 08:34:40;;;;;;;8.77;5.57;;;10.80;63.90;;;;;;5098457;28;20039;-67
2021/01/06 08:37:11;;;;;;;9.07;5.70;;;10.80;63.90;;;;;;5102202;28;20042;-67
2021/01/06 08:39:52;;;;;;;9.00;5.63;;;10.90;64.60;;;;;;5102231;28;20019;-66
2021/01/06 08:42:21;;;;;;;9.48;5.45;;;10.80;63.70;;;;;;5102177;28;20027;-67
2021/01/06 08:44:54;;;;;;;9.60;5.97;;;10.80;63.80;;;;;;5102106;28;20031;-67
2021/01/06 08:47:32;;;;;;;7.03;4.82;;;10.80;63.70;;;;;;5101804;28;20024;-65
2021/01/06 08:50:16;;;;;;;;;;;10.90;63.80;;;;;;5102583;28;20038;-67
2021/01/06 08:52:57;;;;;;;8.32;5.28;;;10.90;63.90;;;;;;5102055;28;20211;-68
2021/01/06 08:55:31;;;;;;;8.77;5.22;;;10.90;63.80;;;;;;5102113;28;20065;-66
2021/01/06 08:58:01;;;;;;;9.07;5.85;;;10.90;64.00;;;;;;5102050;28;20050;-66
2021/01/06 09:00:36;;;;;;;9.02;5.97;;;10.80;63.80;;;;;;5102037;28;20019;-66
2021/01/06 09:03:09;;;;;;;8.57;5.63;;;10.80;64.10;;;;;;5101990;28;20042;-67
2021/01/06 09:05:42;;;;;;;8.25;5.80;;;10.80;64.20;;;;;;5103682;28;20232;-64
2021/01/06 09:08:18;;;;;;;8.55;5.55;;;10.80;64.10;;;;;;5106017;28;20024;-66
2021/01/06 09:11:00;;;;;;;9.00;5.88;;;10.80;64.20;;;;;;5106014;28;20020;-66
2021/01/06 09:13:50;;;;;;;10.23;6.65;;;10.80;64.10;;;;;;5105692;28;20067;-68
2021/01/06 09:16:34;;;;;;;10.20;5.80;;;10.80;63.90;;;;;;5105876;28;20083;-67
2021/01/06 09:19:21;;;;;;;9.27;6.00;;;10.90;63.80;;;;;;5105853;28;20378;-66
2021/01/06 09:21:47;;;;;;;8.75;5.38;;;10.90;63.80;;;;;;5121632;28;20087;-67
2021/01/06 09:24:32;;;;;;;9.40;5.85;;;10.90;63.90;;;;;;5105700;28;20024;-66
2021/01/06 09:27:04;;;;;;;7.38;5.15;;;10.80;63.90;;;;;;5105706;28;20046;-67
2021/01/06 09:29:37;;;;;;;9.77;6.18;;;10.80;64.20;;;;;;5105655;28;20091;-66
2021/01/06 09:32:11;;;;;;;9.27;6.10;;;10.80;64.10;;;;;;5105525;28;20031;-67
2021/01/06 09:34:42;;;;;;;9.82;6.13;;;10.80;64.00;;;;;;5121348;28;20312;-63
2021/01/06 09:37:20;;;;;;;8.75;5.88;;;10.80;64.10;;;;;;5105544;28;20088;-65
2021/01/06 09:39:47;;;;;;;9.20;6.20;;;10.80;64.10;;;;;;5105533;28;20016;-67
2021/01/06 09:42:14;;;;;;;9.60;5.97;;;10.80;64.10;;;;;;5105397;28;20031;-66
2021/01/06 09:44:40;;;;;;;8.95;6.38;;;10.80;64.30;;;;;;5105317;28;20020;-67
2021/01/06 09:47:21;;;;;;;9.95;6.15;;;10.80;64.10;;;;;;5105304;28;20061;-65
2021/01/06 09:49:54;;;;;;;10.82;7.00;;;10.90;64.20;;;;;;5105208;28;20046;-66
2021/01/06 09:52:28;;;;;;;10.45;5.88;;;10.90;64.20;;;;;;5105162;28;20095;-66
2021/01/06 09:54:56;;;;;;;7.07;5.00;;;10.90;64.00;;;;;;5105104;28;20016;-65
2021/01/06 09:57:23;;;;;;;10.30;6.07;;;10.90;64.10;;;;;;5105156;28;20078;-67
2021/01/06 09:59:52;;;;;;;11.00;6.55;;;10.90;63.90;;;;;;5103887;28;20204;-67
2021/01/06 10:02:28;;;;;;;12.27;5.85;;;10.90;63.90;;;;;;5104986;28;20323;-67
2021/01/06 10:05:23;;;;;;;9.75;6.80;;;10.90;64.00;;;;;;5104982;28;20129;-66
2021/01/06 10:07:58;;;;;;;9.25;6.45;;;10.90;64.20;;;;;;5104935;28;20016;-66
2021/01/06 10:10:36;;;;;;;12.02;7.20;;;10.90;64.20;;;;;;5104917;28;20016;-67
2021/01/06 10:13:10;;;;;;;9.23;6.03;;;10.80;64.20;;;;;;5104672;28;20059;-67
2021/01/06 10:16:00;;;;;;;10.73;6.82;;;10.80;64.20;;;;;;5104724;28;20055;-64
2021/01/06 10:18:51;;;;;;;10.15;7.13;;;10.80;64.20;;;;;;5103822;28;20083;-68
2021/01/06 10:21:36;;;;;;;8.57;5.72;;;10.80;64.10;;;;;;5104656;28;20016;-67
2021/01/06 10:24:23;;;;;;;8.25;4.88;;;10.80;64.20;;;;;;5104589;28;20020;-68
2021/01/06 10:27:13;;;;;;;11.20;6.20;;;10.90;64.20;;;;;;5104516;28;20040;-65
2021/01/06 10:29:49;;;;;;;10.20;6.05;;;10.90;64.10;;;;;;5104444;28;20016;-66
2021/01/06 10:32:14;;;;;;;9.82;5.97;;;10.90;64.10;;;;;;5104353;28;20019;-66
2021/01/06 10:34:45;;;;;;;9.63;6.20;;;10.90;64.10;;;;;;5104353;28;20034;-68
2021/01/06 10:37:29;;;;;;;8.32;5.63;;;10.90;64.20;;;;;;5104301;28;20081;-68
2021/01/06 10:40:14;;;;;;;10.90;6.88;;;10.90;64.10;;;;;;5104268;28;20020;-66
2021/01/06 10:42:41;;;;;;;10.70;6.70;;;10.90;64.20;;;;;;5104210;28;20333;-67
2021/01/06 10:45:27;;;;;;;8.63;5.45;;;10.80;64.20;;;;;;5104159;28;20193;-67
2021/01/06 10:47:53;;;;;;;10.02;6.63;;;10.80;64.40;;;;;;5104151;28;20114;-68
2021/01/06 10:50:26;;;;;;;9.85;6.25;;;10.80;64.40;;;;;;5103990;28;20182;-66
2021/01/06 10:53:15;;;;;;;10.32;6.05;;;10.80;64.50;;;;;;5119803;28;20027;-67
2021/01/06 10:55:53;;;;;;;9.93;6.25;;;10.80;64.50;;;;;;5103935;28;20205;-66
2021/01/06 10:58:37;;;;;;;8.65;5.75;;;10.90;64.50;;;;;;5103888;28;20051;-65
2021/01/06 11:01:10;;;;;;;8.55;5.70;;;10.90;64.20;;;;;;5119610;28;20238;-66
2021/01/06 11:03:54;;;;;;;10.85;5.97;;;10.90;64.20;;;;;;5103802;28;20039;-67
2021/01/06 11:06:24;;;;;;;11.13;6.65;;;10.90;64.10;;;;;;5103682;28;20024;-67
2021/01/06 11:09:02;;;;;;;11.00;6.50;;;10.90;64.20;;;;;;5103655;28;20340;-66
2021/01/06 11:11:28;;;;;;;9.93;6.30;;;10.90;64.20;;;;;;5103622;28;20031;-67
2021/01/06 11:14:20;;;;;;;10.57;6.63;;;10.90;64.20;;;;;;5103295;28;20288;-67
2021/01/06 11:16:50;;;;;;;8.15;5.72;;;10.90;64.30;;;;;;5103567;28;20059;-66
2021/01/06 11:19:45;;;;;;;10.35;6.35;;;10.90;64.20;;;;;;5103458;28;20062;-65
2021/01/06 11:22:35;;;;;;;10.00;6.38;;;10.90;64.30;;;;;;5103415;28;20016;-67
2021/01/06 11:25:26;;;;;;;11.88;6.72;;;10.80;64.30;;;;;;5103433;28;20079;-67
2021/01/06 11:28:04;;;;;;;9.38;5.55;;;10.90;64.40;;;;;;5102951;28;20290;-67
2021/01/06 11:30:39;;;;;;;13.05;7.18;;;10.90;64.50;;;;;;5103315;28;20472;-68
2021/01/06 11:33:13;;;;;;;11.48;6.53;;;10.90;64.50;;;;;;5103184;28;20057;-65
2021/01/06 11:36:01;;;;;;;7.88;5.32;;;10.90;64.50;;;;;;5103134;28;20012;-65
2021/01/06 11:38:47;;;;;;;9.82;6.10;;;10.90;64.50;;;;;;5103158;28;20312;-66
2021/01/06 11:41:41;;;;;;;9.63;6.20;;;10.90;64.40;;;;;;5103133;28;20348;-68
2021/01/06 11:44:27;;;;;;;10.82;6.47;;;10.90;64.30;;;;;;5102928;28;20046;-67
2021/01/06 11:46:53;;;;;;;8.60;5.93;;;10.90;64.30;;;;;;5103052;28;20689;-67
2021/01/06 11:49:24;;;;;;;10.23;5.85;;;10.90;64.30;;;;;;5102925;28;20036;-66
2021/01/06 11:52:27;;;;;;;9.85;6.55;;;10.90;64.20;;;;;;5102899;28;20113;-67
2021/01/06 11:55:01;;;;;;;10.70;6.85;;;10.90;64.40;;;;;;5102845;28;20036;-66
2021/01/06 11:57:32;;;;;;;10.05;6.75;;;10.80;64.40;;;;;;5102808;28;20016;-64
2021/01/06 12:00:19;;;;;;;12.10;7.03;;;10.90;64.50;;;;;;5102702;28;20024;-65
2021/01/06 12:03:14;;;;;;;12.32;7.45;;;10.90;64.60;;;;;;5102710;28;20050;-68
2021/01/06 12:05:59;;;;;;;10.82;7.07;;;10.90;64.60;;;;;;5102651;28;20219;-66
2021/01/06 12:08:57;;;;;;;9.07;6.25;;;10.90;64.50;;;;;;5102599;28;20028;-66
2021/01/06 12:11:32;;;;;;;12.20;6.72;;;10.90;64.40;;;;;;5102597;28;20016;-67
2021/01/06 12:14:31;;;;;;;9.52;6.78;;;10.90;64.40;;;;;;5102294;28;20382;-65
2021/01/06 12:17:15;;;;;;;12.35;7.20;;;10.90;64.40;;;;;;5118272;28;20024;-67
2021/01/06 12:20:05;;;;;;;12.48;6.95;;;10.90;64.20;;;;;;5102466;28;20126;-67
2021/01/06 12:22:32;;;;;;;10.75;7.05;;;10.90;64.20;;;;;;5102389;28;20052;-67
2021/01/06 12:25:18;;;;;;;11.45;6.75;;;10.90;64.20;;;;;;5102357;28;20381;-67
2021/01/06 12:28:01;;;;;;;10.63;7.05;;;11.00;64.30;;;;;;5102379;28;20079;-64
2021/01/06 12:30:36;;;;;;;10.70;6.97;;;11.00;64.30;;;;;;5102349;28;20367;-64
2021/01/06 12:33:31;;;;;;;9.95;6.53;;;10.90;64.20;;;;;;5102199;28;20065;-66
2021/01/06 12:36:10;;;;;;;9.88;6.60;;;10.90;64.40;;;;;;5102206;28;20019;-65
2021/01/06 12:38:36;;;;;;;10.00;6.65;;;10.90;64.40;;;;;;5102235;28;20039;-66
2021/01/06 12:41:03;;;;;;;11.13;7.00;;;10.90;64.50;;;;;;5101592;28;20026;-67
2021/01/06 12:44:05;;;;;;;11.25;7.28;;;10.90;64.40;;;;;;5102117;28;20327;-67
2021/01/06 12:46:37;;;;;;;8.50;5.80;;;10.90;65.10;;;;;;5102162;28;20304;-67
2021/01/06 12:49:15;;;;;;;9.07;6.18;;;10.90;64.50;;;;;;5102108;28;20052;-66
2021/01/06 12:52:05;;;;;;;11.45;7.75;;;10.90;64.30;;;;;;5102126;28;20042;-68
2021/01/06 12:54:38;;;;;;;9.50;6.28;;;10.90;64.10;;;;;;5102028;28;20235;-65
2021/01/06 12:57:27;;;;;;;11.13;6.65;;;10.90;64.20;;;;;;5102078;28;20304;-67
2021/01/06 12:59:58;;;;;;;;;;;10.90;64.40;;;;;;5102518;28;20031;-68
2021/01/06 13:02:32;;;;;;;9.77;6.55;;;10.90;64.50;;;;;;5101973;28;19907;-67
2021/01/06 13:05:20;;;;;;;11.25;6.93;;;10.90;64.50;;;;;;5101966;28;20091;-66
2021/01/06 13:07:51;;;;;;;10.95;6.65;;;10.90;64.40;;;;;;5102010;28;20027;-67
2021/01/06 13:10:17;;;;;;;10.15;6.82;;;10.90;64.50;;;;;;5101803;28;20024;-66
2021/01/06 13:12:52;;;;;;;11.32;7.05;;;10.90;64.50;;;;;;5101610;28;20048;-64
2021/01/06 13:16:13;;;;;;;11.27;7.18;;;10.90;64.50;;;;;;5101872;28;20084;-66
2021/01/06 13:19:09;;;;;;;9.80;6.40;;;10.90;64.50;;;;;;5079102;28;20028;-68
2021/01/06 13:21:42;;;;;;;14.25;6.80;;;10.90;64.40;;;;;;5101834;28;20320;-66
2021/01/06 13:24:14;;;;;;;10.48;7.00;;;10.90;64.40;;;;;;5101788;28;20091;-67
2021/01/06 13:26:44;;;;;;;11.32;6.97;;;10.90;64.40;;;;;;5101740;28;20052;-65
2021/01/06 13:29:20;;;;;;;9.27;6.57;;;10.90;64.30;;;;;;5101746;28;20031;-66